createdAt,value
2022-12-11T00:01:16.208Z,79.00
2022-12-11T00:03:44.878Z,79.20
2022-12-11T00:06:14.896Z,79.20
2022-12-11T00:08:43.694Z,79.30
2022-12-11T00:11:14.616Z,79.20
2022-12-11T00:13:43.386Z,79.20
2022-12-11T00:16:12.306Z,79.20
2022-12-11T00:18:40.520Z,79.20
2022-12-11T00:21:12.226Z,79.20
2022-12-11T00:23:40.795Z,79.20
2022-12-11T00:26:11.221Z,79.30
2022-12-11T00:28:41.547Z,79.40
2022-12-11T00:31:13.252Z,79.30
2022-12-11T00:33:41.851Z,79.40
2022-12-11T00:36:14.149Z,79.30
2022-12-11T00:38:43.381Z,79.40
2022-12-11T00:41:12.444Z,79.20
2022-12-11T00:43:42.179Z,79.20
2022-12-11T00:46:10.573Z,79.20
2022-12-11T00:48:40.057Z,79.30
2022-12-11T00:51:08.474Z,79.20
2022-12-11T00:53:37.719Z,79.20
2022-12-11T00:56:11.869Z,79.20
2022-12-11T00:58:41.880Z,79.40
2022-12-11T01:01:11.232Z,79.30
2022-12-11T01:03:39.990Z,79.40
2022-12-11T01:06:09.519Z,79.30
2022-12-11T01:08:38.833Z,79.40
2022-12-11T01:11:09.404Z,79.40
2022-12-11T01:13:38.185Z,79.50
2022-12-11T01:16:13.059Z,79.60
2022-12-11T01:18:41.713Z,79.60
2022-12-11T01:21:12.033Z,79.60
2022-12-11T01:23:40.585Z,79.70
2022-12-11T01:26:10.181Z,79.80
2022-12-11T01:28:38.505Z,79.90
2022-12-11T01:31:11.539Z,79.90
2022-12-11T01:33:41.061Z,79.90
2022-12-11T01:36:11.153Z,79.80
2022-12-11T01:38:39.566Z,79.90
2022-12-11T01:41:08.210Z,79.80
2022-12-11T01:43:37.041Z,79.90
2022-12-11T01:46:05.256Z,80.00
2022-12-11T01:48:40.668Z,80.00
2022-12-11T01:51:10.183Z,79.90
2022-12-11T01:53:41.665Z,80.00
2022-12-11T01:56:11.547Z,80.10
2022-12-11T01:58:44.017Z,80.10
2022-12-11T02:01:16.079Z,80.10
2022-12-11T02:03:46.133Z,80.00
2022-12-11T02:06:31.136Z,79.90
2022-12-11T02:08:59.824Z,79.80
2022-12-11T02:11:36.436Z,79.70
2022-12-11T02:14:11.054Z,79.80
2022-12-11T02:16:46.973Z,79.70
2022-12-11T02:20:05.495Z,79.60
2022-12-11T02:23:02.605Z,79.60
2022-12-11T02:25:37.248Z,79.60
2022-12-11T02:28:31.351Z,79.50
2022-12-11T02:31:05.193Z,79.60
2022-12-11T02:33:39.245Z,79.60
2022-12-11T02:36:10.826Z,79.80
2022-12-11T02:38:42.144Z,79.80
2022-12-11T02:41:13.608Z,79.80
2022-12-11T02:43:45.016Z,79.60
2022-12-11T02:46:15.280Z,79.70
2022-12-11T02:48:45.808Z,79.70
2022-12-11T02:51:17.702Z,79.70
2022-12-11T02:53:48.187Z,79.80
2022-12-11T02:56:40.020Z,79.80
2022-12-11T02:59:14.562Z,79.80
2022-12-11T03:01:43.548Z,79.80
2022-12-11T03:04:12.281Z,79.90
2022-12-11T03:06:46.768Z,79.80
2022-12-11T03:09:15.381Z,79.80
2022-12-11T03:11:44.026Z,79.80
2022-12-11T03:14:15.260Z,79.80
2022-12-11T03:16:48.884Z,79.80
2022-12-11T03:19:25.781Z,79.80
2022-12-11T03:21:56.750Z,79.60
2022-12-11T03:24:31.942Z,79.70
2022-12-11T03:27:10.886Z,79.50
2022-12-11T03:29:46.509Z,79.40
2022-12-11T03:32:20.361Z,79.10
2022-12-11T03:34:58.321Z,79.20
2022-12-11T03:37:30.369Z,79.20
2022-12-11T03:40:03.618Z,79.20
2022-12-11T03:42:33.682Z,79.20
2022-12-11T03:45:06.181Z,79.20
2022-12-11T03:47:35.544Z,79.30
2022-12-11T03:50:06.857Z,79.20
2022-12-11T03:52:38.571Z,79.30
2022-12-11T03:55:13.754Z,79.20
2022-12-11T03:57:41.955Z,79.20
2022-12-11T04:00:15.629Z,79.20
2022-12-11T04:02:44.905Z,79.20
2022-12-11T04:05:13.637Z,79.10
2022-12-11T04:07:42.412Z,78.90
2022-12-11T04:10:10.935Z,78.80
2022-12-11T04:12:39.532Z,78.70
2022-12-11T04:15:07.216Z,78.50
2022-12-11T04:17:55.642Z,78.60
2022-12-11T04:20:40.947Z,78.80
2022-12-11T04:23:32.591Z,78.60
2022-12-11T04:26:06.504Z,78.50
2022-12-11T04:28:34.741Z,78.50
2022-12-11T04:31:03.978Z,78.50
2022-12-11T04:33:34.133Z,78.50
2022-12-11T04:36:02.738Z,78.60
2022-12-11T04:38:31.382Z,78.70
2022-12-11T04:41:00.499Z,78.70
2022-12-11T04:43:29.182Z,78.80
2022-12-11T04:46:03.456Z,78.80
2022-12-11T04:48:33.566Z,78.80
2022-12-11T04:51:02.243Z,78.80
2022-12-11T04:53:31.070Z,78.80
2022-12-11T04:55:59.212Z,78.70
2022-12-11T04:58:28.309Z,78.60
2022-12-11T05:00:56.890Z,78.60
2022-12-11T05:03:26.244Z,78.60
2022-12-11T05:05:55.912Z,78.50
2022-12-11T05:08:24.592Z,78.60
2022-12-11T05:10:58.055Z,78.60
2022-12-11T05:13:26.240Z,78.70
2022-12-11T05:15:55.051Z,78.70
2022-12-11T05:18:24.105Z,78.80
2022-12-11T05:20:59.689Z,78.80
2022-12-11T05:23:28.787Z,78.80
2022-12-11T05:25:58.601Z,79.00
2022-12-11T05:28:28.755Z,79.00
2022-12-11T05:30:58.476Z,79.00
2022-12-11T05:33:27.186Z,79.00
2022-12-11T05:35:55.819Z,78.80
2022-12-11T05:38:25.703Z,78.80
2022-12-11T05:40:58.842Z,78.80
2022-12-11T05:43:27.441Z,78.60
2022-12-11T05:45:56.405Z,78.50
2022-12-11T05:48:24.535Z,78.50
2022-12-11T05:50:59.694Z,78.40
2022-12-11T05:53:30.218Z,78.50
2022-12-11T05:56:03.750Z,78.50
2022-12-11T05:58:32.152Z,78.30
2022-12-11T06:01:01.287Z,78.10
2022-12-11T06:03:29.798Z,78.20
2022-12-11T06:05:58.451Z,78.00
2022-12-11T06:08:28.015Z,78.10
2022-12-11T06:10:56.666Z,78.00
2022-12-11T06:13:24.833Z,77.90
2022-12-11T06:15:53.562Z,78.10
2022-12-11T06:18:22.195Z,78.20
2022-12-11T06:20:50.312Z,78.10
2022-12-11T06:23:18.956Z,77.90
2022-12-11T06:25:49.076Z,77.90
2022-12-11T06:28:18.046Z,78.00
2022-12-11T06:30:46.225Z,78.10
2022-12-11T06:33:14.624Z,78.10
2022-12-11T06:35:43.211Z,78.10
2022-12-11T06:38:11.906Z,78.10
2022-12-11T06:40:40.739Z,78.00
2022-12-11T06:43:10.736Z,78.10
2022-12-11T06:45:39.747Z,78.00
2022-12-11T06:48:08.132Z,78.10
2022-12-11T06:50:36.904Z,78.10
2022-12-11T06:53:05.548Z,77.90
2022-12-11T06:55:36.317Z,77.80
2022-12-11T06:58:05.068Z,77.70
2022-12-11T07:00:36.618Z,77.70
2022-12-11T07:03:06.024Z,77.70
2022-12-11T07:05:35.419Z,77.70
2022-12-11T07:08:04.155Z,77.70
2022-12-11T07:10:33.942Z,77.60
2022-12-11T07:13:02.130Z,77.60
2022-12-11T07:15:30.399Z,77.50
2022-12-11T07:18:00.463Z,77.60
2022-12-11T07:20:28.707Z,77.60
2022-12-11T07:22:56.923Z,77.60
2022-12-11T07:25:25.051Z,77.60
2022-12-11T07:27:53.693Z,77.60
2022-12-11T07:30:22.341Z,77.40
2022-12-11T07:32:51.100Z,77.60
2022-12-11T07:35:20.743Z,77.60
2022-12-11T07:37:49.395Z,77.60
2022-12-11T07:40:18.274Z,77.60
2022-12-11T07:42:46.938Z,77.90
2022-12-11T07:45:15.227Z,77.90
2022-12-11T07:47:43.882Z,78.00
2022-12-11T07:50:12.694Z,77.90
2022-12-11T07:52:42.744Z,77.90
2022-12-11T07:55:12.204Z,78.10
2022-12-11T07:57:41.155Z,78.20
2022-12-11T08:00:11.499Z,78.20
2022-12-11T08:02:40.313Z,78.30
2022-12-11T08:05:10.692Z,78.30
2022-12-11T08:07:38.996Z,78.60
2022-12-11T08:10:09.138Z,78.50
2022-12-11T08:12:37.750Z,78.60
2022-12-11T08:15:07.167Z,78.70
2022-12-11T08:17:40.019Z,78.80
2022-12-11T08:20:09.599Z,78.90
2022-12-11T08:22:38.264Z,79.00
2022-12-11T08:25:09.358Z,78.90
2022-12-11T08:27:38.203Z,79.00
2022-12-11T08:30:07.491Z,78.90
2022-12-11T08:32:35.988Z,79.10
2022-12-11T08:35:04.623Z,78.90
2022-12-11T08:37:33.258Z,79.10
2022-12-11T08:40:01.486Z,79.10
2022-12-11T08:42:30.983Z,78.90
2022-12-11T08:45:00.113Z,79.00
2022-12-11T08:47:28.827Z,78.90
2022-12-11T08:49:57.475Z,78.80
2022-12-11T08:52:25.628Z,78.60
2022-12-11T08:54:54.355Z,78.50
2022-12-11T08:57:22.487Z,78.70
2022-12-11T08:59:52.518Z,78.50
2022-12-11T09:02:21.194Z,78.40
2022-12-11T09:04:49.329Z,78.30
2022-12-11T09:07:17.953Z,78.30
2022-12-11T09:09:46.144Z,78.20
2022-12-11T09:12:14.744Z,78.20
2022-12-11T09:14:42.868Z,77.90
2022-12-11T09:17:12.952Z,77.70
2022-12-11T09:19:41.561Z,77.80
2022-12-11T09:22:11.732Z,77.80
2022-12-11T09:24:40.481Z,77.90
2022-12-11T09:27:09.132Z,77.80
2022-12-11T09:29:37.764Z,77.70
2022-12-11T09:32:06.530Z,77.90
2022-12-11T09:34:36.599Z,77.90
2022-12-11T09:37:04.868Z,78.00
2022-12-11T09:39:33.554Z,77.90
2022-12-11T09:42:07.009Z,78.00
2022-12-11T09:44:44.935Z,77.90
2022-12-11T09:47:20.394Z,77.90
2022-12-11T09:49:55.796Z,77.80
2022-12-11T09:52:33.027Z,77.90
2022-12-11T09:55:04.750Z,77.80
2022-12-11T09:57:44.818Z,77.70
2022-12-11T10:00:21.877Z,77.50
2022-12-11T10:03:28.683Z,77.50
2022-12-11T10:06:05.093Z,77.50
2022-12-11T10:08:40.682Z,77.50
2022-12-11T10:11:37.488Z,77.30
2022-12-11T10:14:15.939Z,77.20
2022-12-11T10:16:47.216Z,77.20
2022-12-11T10:19:21.080Z,77.10
2022-12-11T10:21:52.917Z,77.00
2022-12-11T10:25:07.725Z,77.90
2022-12-11T10:27:21.743Z,77.00
2022-12-11T10:29:55.765Z,77.00
2022-12-11T10:32:25.707Z,76.80
2022-12-11T10:35:01.284Z,76.80
2022-12-11T10:37:30.862Z,76.90
2022-12-11T10:39:59.008Z,76.80
2022-12-11T10:42:27.654Z,76.80
2022-12-11T10:45:00.997Z,76.80
2022-12-11T10:47:29.862Z,76.70
2022-12-11T10:49:59.998Z,76.70
2022-12-11T10:52:32.815Z,76.60
2022-12-11T10:55:04.473Z,76.60
2022-12-11T10:57:35.231Z,76.50
2022-12-11T11:00:06.163Z,76.50
2022-12-11T11:02:37.483Z,76.50
2022-12-11T11:05:14.741Z,76.40
2022-12-11T11:07:44.720Z,76.40
2022-12-11T11:10:19.141Z,76.40
2022-12-11T11:12:49.353Z,76.40
2022-12-11T11:15:20.519Z,76.50
2022-12-11T11:17:55.540Z,76.50
2022-12-11T11:20:26.753Z,76.50
2022-12-11T11:22:59.244Z,76.50
2022-12-11T11:25:28.922Z,76.40
2022-12-11T11:27:59.587Z,76.40
2022-12-11T11:30:29.983Z,77.50
2022-12-11T11:33:06.820Z,76.50
2022-12-11T11:35:34.943Z,76.30
2022-12-11T11:38:14.066Z,76.20
2022-12-11T11:40:47.838Z,76.10
2022-12-11T11:43:23.133Z,76.10
2022-12-11T11:45:56.545Z,76.20
2022-12-11T11:48:35.731Z,76.10
2022-12-11T11:51:15.291Z,76.20
2022-12-11T11:53:49.251Z,76.30
2022-12-11T11:56:28.985Z,76.40
2022-12-11T11:59:08.369Z,76.10
2022-12-11T12:01:36.555Z,76.10
2022-12-11T12:04:06.573Z,76.10
2022-12-11T12:07:09.264Z,76.10
2022-12-11T12:09:50.445Z,75.90
2022-12-11T12:12:33.838Z,75.90
2022-12-11T12:15:22.418Z,75.80
2022-12-11T12:17:56.013Z,75.50
2022-12-11T12:20:39.400Z,75.50
2022-12-11T12:23:37.344Z,75.70
2022-12-11T12:26:16.523Z,75.40
2022-12-11T12:28:58.411Z,75.50
2022-12-11T12:31:42.793Z,75.50
2022-12-11T12:34:22.582Z,75.50
2022-12-11T12:37:01.555Z,75.50
2022-12-11T12:39:43.083Z,75.30
2022-12-11T12:42:23.622Z,74.60
2022-12-11T12:44:58.332Z,74.70
2022-12-11T12:47:31.081Z,74.70
2022-12-11T12:50:00.720Z,74.40
2022-12-11T12:52:33.513Z,74.20
2022-12-11T12:55:19.323Z,74.40
2022-12-11T12:57:51.891Z,74.50
2022-12-11T13:00:35.025Z,74.40
2022-12-11T13:03:14.061Z,74.60
2022-12-11T13:05:46.197Z,74.90
2022-12-11T13:08:14.587Z,75.00
2022-12-11T13:10:44.716Z,75.30
2022-12-11T13:13:35.924Z,75.80
2022-12-11T13:16:26.505Z,75.50
2022-12-11T13:18:54.930Z,75.50
2022-12-11T13:21:32.075Z,75.50
2022-12-11T13:24:27.914Z,75.10
2022-12-11T13:27:10.715Z,74.60
2022-12-11T13:29:42.260Z,74.60
2022-12-11T13:32:25.633Z,74.50
2022-12-11T13:34:57.347Z,74.40
2022-12-11T13:37:30.933Z,74.50
2022-12-11T13:39:59.601Z,74.30
2022-12-11T13:42:33.797Z,74.00
2022-12-11T13:45:05.020Z,73.60
2022-12-11T13:47:34.203Z,73.30
2022-12-11T13:50:16.082Z,73.00
2022-12-11T13:52:54.442Z,71.90
2022-12-11T13:55:26.998Z,71.90
2022-12-11T13:57:55.138Z,71.90
2022-12-11T14:00:27.258Z,71.90
2022-12-11T14:02:57.825Z,71.90
2022-12-11T14:05:26.695Z,72.00
2022-12-11T14:07:58.381Z,71.80
2022-12-11T14:10:29.929Z,71.80
2022-12-11T14:13:01.918Z,71.80
2022-12-11T14:15:34.242Z,71.60
2022-12-11T14:18:02.902Z,71.60
2022-12-11T14:20:33.695Z,71.70
2022-12-11T14:23:07.240Z,71.70
2022-12-11T14:25:35.869Z,71.60
2022-12-11T14:28:04.258Z,71.80
2022-12-11T14:30:48.020Z,71.90
2022-12-11T14:33:18.428Z,71.70
2022-12-11T14:35:47.972Z,71.70
2022-12-11T14:38:23.741Z,71.70
2022-12-11T14:40:56.670Z,71.60
2022-12-11T14:43:29.931Z,71.60
2022-12-11T14:46:05.209Z,71.60
2022-12-11T14:48:37.715Z,71.40
2022-12-11T14:51:10.270Z,71.50
2022-12-11T14:53:42.944Z,71.40
2022-12-11T14:56:19.947Z,71.50
2022-12-11T14:58:57.089Z,71.40
2022-12-11T15:01:30.390Z,71.60
2022-12-11T15:04:08.200Z,71.70
2022-12-11T15:06:43.978Z,71.80
2022-12-11T15:09:20.753Z,71.90
2022-12-11T15:11:52.043Z,72.00
2022-12-11T15:14:22.366Z,72.10
2022-12-11T15:16:52.927Z,72.00
2022-12-11T15:19:25.573Z,72.20
2022-12-11T15:21:54.223Z,72.30
2022-12-11T15:24:29.953Z,72.40
2022-12-11T15:27:01.043Z,72.50
2022-12-11T15:29:35.696Z,72.60
2022-12-11T15:32:19.453Z,72.70
2022-12-11T15:34:50.530Z,72.70
2022-12-11T15:37:23.980Z,72.70
2022-12-11T15:39:52.992Z,72.70
2022-12-11T15:42:27.666Z,72.50
2022-12-11T15:44:56.574Z,72.50
2022-12-11T15:47:29.281Z,72.50
2022-12-11T15:49:59.933Z,72.30
2022-12-11T15:52:28.542Z,72.10
2022-12-11T15:54:59.456Z,72.20
2022-12-11T15:57:27.648Z,72.30
2022-12-11T15:59:56.453Z,72.30
2022-12-11T16:02:26.937Z,72.40
2022-12-11T16:04:55.690Z,72.50
2022-12-11T16:07:26.127Z,72.50
2022-12-11T16:09:55.324Z,72.60
2022-12-11T16:12:23.477Z,72.50
2022-12-11T16:14:52.085Z,72.50
2022-12-11T16:17:20.413Z,72.60
2022-12-11T16:19:50.543Z,72.50
2022-12-11T16:22:19.959Z,72.40
2022-12-11T16:24:48.110Z,72.50
2022-12-11T16:27:22.863Z,72.70
2022-12-11T16:29:51.868Z,72.70
2022-12-11T16:32:20.055Z,72.90
2022-12-11T16:34:49.593Z,73.10
2022-12-11T16:37:17.783Z,72.90
2022-12-11T16:39:47.388Z,73.10
2022-12-11T16:42:15.554Z,73.10
2022-12-11T16:44:44.637Z,73.20
2022-12-11T16:47:13.034Z,73.20
2022-12-11T16:49:44.709Z,73.10
2022-12-11T16:52:18.961Z,73.30
2022-12-11T16:54:50.104Z,74.10
2022-12-11T16:57:18.318Z,73.10
2022-12-11T16:59:46.999Z,73.40
2022-12-11T17:02:16.064Z,73.40
2022-12-11T17:04:46.140Z,73.30
2022-12-11T17:07:20.401Z,73.60
2022-12-11T17:09:48.651Z,73.50
2022-12-11T17:12:17.238Z,73.30
2022-12-11T17:14:45.588Z,73.50
2022-12-11T17:17:14.555Z,73.60
2022-12-11T17:19:42.677Z,73.60
2022-12-11T17:22:11.273Z,73.70
2022-12-11T17:24:40.723Z,73.80
2022-12-11T17:27:09.391Z,74.00
2022-12-11T17:29:38.385Z,74.00
2022-12-11T17:32:07.041Z,74.00
2022-12-11T17:34:38.362Z,74.30
2022-12-11T17:37:07.278Z,74.30
2022-12-11T17:39:35.546Z,74.40
2022-12-11T17:42:05.707Z,74.40
2022-12-11T17:44:34.216Z,74.30
2022-12-11T17:47:06.177Z,74.80
2022-12-11T17:49:39.489Z,74.40
2022-12-11T17:52:08.007Z,74.50
2022-12-11T17:54:36.668Z,74.60
2022-12-11T17:57:06.647Z,74.50
2022-12-11T17:59:35.498Z,74.60
2022-12-11T18:02:03.723Z,74.80
2022-12-11T18:04:31.882Z,75.20
2022-12-11T18:07:00.048Z,75.00
2022-12-11T18:09:28.152Z,75.00
2022-12-11T18:11:56.258Z,75.00
2022-12-11T18:14:26.287Z,74.90
2022-12-11T18:16:54.422Z,75.10
2022-12-11T18:19:23.284Z,75.10
2022-12-11T18:21:51.425Z,75.10
2022-12-11T18:24:19.580Z,75.20
2022-12-11T18:26:49.174Z,75.10
2022-12-11T18:29:17.282Z,75.30
2022-12-11T18:31:47.587Z,75.30
2022-12-11T18:34:15.797Z,75.30
2022-12-11T18:36:44.056Z,75.40
2022-12-11T18:39:12.115Z,75.30
2022-12-11T18:41:40.185Z,75.40
2022-12-11T18:44:10.117Z,75.50
2022-12-11T18:46:39.981Z,75.50
2022-12-11T18:49:09.549Z,75.50
2022-12-11T18:51:37.700Z,75.50
2022-12-11T18:54:05.963Z,75.50
2022-12-11T18:56:34.497Z,75.50
2022-12-11T18:59:02.778Z,75.60
2022-12-11T19:01:33.131Z,75.60
2022-12-11T19:04:09.038Z,75.70
2022-12-11T19:06:40.340Z,75.80
2022-12-11T19:09:09.191Z,75.90
2022-12-11T19:11:39.704Z,75.90
2022-12-11T19:14:08.822Z,75.90
2022-12-11T19:16:39.226Z,75.90
2022-12-11T19:19:10.243Z,76.00
2022-12-11T19:21:41.160Z,76.00
2022-12-11T19:24:13.459Z,75.90
2022-12-11T19:26:41.813Z,76.00
2022-12-11T19:29:10.108Z,75.90
2022-12-11T19:31:38.915Z,76.00
2022-12-11T19:34:07.087Z,75.80
2022-12-11T19:36:37.238Z,75.90
2022-12-11T19:39:12.845Z,75.90
2022-12-11T19:41:42.012Z,75.90
2022-12-11T19:44:11.178Z,76.20
2022-12-11T19:46:40.143Z,76.10
2022-12-11T19:49:08.871Z,76.10
2022-12-11T19:51:41.879Z,76.10
2022-12-11T19:54:14.894Z,76.10
2022-12-11T19:56:43.633Z,76.10
2022-12-11T19:59:16.259Z,76.10
2022-12-11T20:01:47.157Z,76.20
2022-12-11T20:04:17.219Z,76.30
2022-12-11T20:06:47.516Z,76.30
2022-12-11T20:09:18.049Z,76.30
2022-12-11T20:11:49.516Z,76.30
2022-12-11T20:14:21.287Z,76.30
2022-12-11T20:19:38.242Z,76.40
2022-12-11T20:22:06.693Z,76.40
2022-12-11T20:24:37.217Z,76.50
2022-12-11T20:27:06.185Z,76.60
2022-12-11T20:29:34.255Z,76.40
2022-12-11T20:32:03.003Z,76.50
2022-12-11T20:34:31.272Z,76.60
2022-12-11T20:37:00.305Z,76.40
2022-12-11T20:39:29.569Z,76.40
2022-12-11T20:42:04.784Z,76.60
2022-12-11T20:44:33.790Z,76.40
2022-12-11T20:47:01.966Z,76.40
2022-12-11T20:49:30.549Z,76.40
2022-12-11T20:51:59.524Z,76.40
2022-12-11T20:54:28.151Z,76.40
2022-12-11T20:56:56.275Z,76.40
2022-12-11T20:59:26.611Z,76.10
2022-12-11T21:01:55.333Z,76.20
2022-12-11T21:04:24.088Z,77.10
2022-12-11T21:06:56.013Z,76.10
2022-12-11T21:09:26.730Z,76.20
2022-12-11T21:11:55.575Z,76.20
2022-12-11T21:14:25.219Z,76.10
2022-12-11T21:16:53.828Z,76.20
2022-12-11T21:19:22.865Z,76.10
2022-12-11T21:21:51.761Z,76.10
2022-12-11T21:24:22.960Z,76.10
2022-12-11T21:26:51.827Z,76.30
2022-12-11T21:33:02.593Z,76.30
2022-12-11T21:35:30.784Z,76.10
2022-12-11T21:37:59.357Z,76.00
2022-12-11T21:40:27.434Z,75.90
2022-12-11T21:42:56.060Z,75.90
2022-12-11T21:45:59.916Z,75.90
2022-12-11T21:48:15.014Z,76.00
2022-12-11T21:50:44.221Z,76.10
2022-12-11T21:53:12.334Z,76.10
2022-12-11T21:55:43.542Z,75.90
2022-12-11T21:58:11.722Z,75.90
2022-12-11T22:00:40.448Z,76.10
2022-12-11T22:03:09.184Z,75.90
2022-12-11T22:05:38.672Z,75.90
2022-12-11T22:08:07.741Z,76.10
2022-12-11T22:10:35.935Z,76.60
2022-12-11T22:13:04.489Z,76.20
2022-12-11T22:15:32.563Z,76.10
2022-12-11T22:18:01.173Z,76.20
2022-12-11T22:20:29.806Z,76.30
2022-12-11T22:22:59.541Z,76.20
2022-12-11T22:25:28.176Z,76.30
2022-12-11T22:27:56.303Z,76.20
2022-12-11T22:30:24.913Z,76.40
2022-12-11T22:32:53.119Z,76.50
2022-12-11T22:35:26.872Z,76.60
2022-12-11T22:37:56.208Z,76.40
2022-12-11T22:40:26.720Z,76.60
2022-12-11T22:42:55.476Z,76.50
2022-12-11T22:45:23.929Z,76.40
2022-12-11T22:47:52.950Z,76.30
2022-12-11T22:50:21.147Z,76.40
2022-12-11T22:52:49.843Z,76.30
2022-12-11T22:55:18.004Z,76.30
2022-12-11T22:57:49.325Z,76.40
2022-12-11T23:00:18.720Z,76.40
2022-12-11T23:02:47.422Z,75.90
2022-12-11T23:05:15.756Z,76.50
2022-12-11T23:07:44.457Z,76.50
2022-12-11T23:10:12.692Z,76.50
2022-12-11T23:12:41.312Z,76.50
2022-12-11T23:15:12.389Z,76.50
2022-12-11T23:17:40.864Z,76.60
2022-12-11T23:20:10.872Z,76.60
2022-12-11T23:22:39.056Z,76.60
2022-12-11T23:25:08.467Z,76.40
2022-12-11T23:27:36.786Z,76.40
2022-12-11T23:30:06.244Z,76.30
2022-12-11T23:32:36.256Z,76.40
2022-12-11T23:35:04.834Z,76.30
2022-12-11T23:37:33.515Z,76.50
2022-12-11T23:40:01.647Z,76.60
2022-12-11T23:42:30.311Z,76.60
2022-12-11T23:44:58.853Z,76.60
2022-12-11T23:47:26.960Z,76.60
2022-12-11T23:49:56.480Z,76.60
2022-12-11T23:52:25.613Z,76.60
2022-12-11T23:54:55.394Z,76.80
2022-12-11T23:57:24.230Z,76.80
2022-12-11T23:59:52.348Z,76.80
